createdAt,value
2018-08-11T00:00:48.318Z,19.00
2018-08-11T00:01:48.487Z,18.88
2018-08-11T00:02:48.669Z,18.91
2018-08-11T00:03:48.950Z,18.91
2018-08-11T00:04:48.999Z,18.91
2018-08-11T00:05:49.172Z,18.88
2018-08-11T00:06:49.342Z,18.90
2018-08-11T00:07:49.512Z,18.92
2018-08-11T00:08:49.675Z,18.87
2018-08-11T00:09:49.850Z,18.94
2018-08-11T00:10:50.021Z,19.02
2018-08-11T00:11:50.218Z,19.06
2018-08-11T00:12:50.350Z,18.98
2018-08-11T00:13:50.523Z,19.06
2018-08-11T00:14:50.686Z,19.11
2018-08-11T00:15:50.909Z,19.14
2018-08-11T00:16:51.025Z,19.02
2018-08-11T00:17:51.201Z,19.04
2018-08-11T00:18:51.379Z,18.90
2018-08-11T00:19:51.547Z,18.84
2018-08-11T00:20:51.723Z,18.65
2018-08-11T00:21:51.892Z,18.78
2018-08-11T00:22:52.070Z,18.69
2018-08-11T00:23:52.238Z,18.70
2018-08-11T00:24:52.414Z,18.62
2018-08-11T00:25:52.585Z,18.67
2018-08-11T00:26:52.755Z,18.81
2018-08-11T00:27:52.931Z,18.70
2018-08-11T00:28:53.095Z,18.73
2018-08-11T00:29:53.268Z,18.66
2018-08-11T00:30:53.450Z,18.69
2018-08-11T00:31:53.619Z,18.72
2018-08-11T00:32:53.814Z,18.66
2018-08-11T00:33:53.976Z,18.70
2018-08-11T00:34:54.145Z,18.76
2018-08-11T00:35:54.315Z,18.75
2018-08-11T00:36:54.489Z,18.67
2018-08-11T00:37:54.661Z,18.69
2018-08-11T00:38:54.831Z,18.66
2018-08-11T00:39:55.033Z,18.69
2018-08-11T00:40:55.205Z,18.73
2018-08-11T00:41:55.379Z,18.69
2018-08-11T00:42:55.543Z,18.70
2018-08-11T00:43:55.720Z,18.67
2018-08-11T00:44:56.452Z,18.66
2018-08-11T00:45:56.187Z,18.63
2018-08-11T00:46:56.195Z,18.69
2018-08-11T00:47:56.364Z,18.66
2018-08-11T00:48:56.542Z,18.72
2018-08-11T00:49:56.711Z,18.65
2018-08-11T00:50:56.885Z,18.58
2018-08-11T00:51:57.062Z,18.67
2018-08-11T00:52:57.242Z,18.62
2018-08-11T00:53:57.410Z,18.65
2018-08-11T00:54:57.580Z,18.69
2018-08-11T00:55:57.747Z,18.60
2018-08-11T00:56:57.921Z,18.60
2018-08-11T00:57:58.092Z,18.66
2018-08-11T00:58:58.260Z,18.65
2018-08-11T00:59:58.432Z,18.63
2018-08-11T01:00:58.617Z,18.60
2018-08-11T01:01:58.784Z,18.66
2018-08-11T01:02:58.968Z,18.65
2018-08-11T01:03:59.141Z,18.60
2018-08-11T01:04:59.308Z,18.67
2018-08-11T01:05:59.478Z,18.62
2018-08-11T01:06:59.652Z,18.69
2018-08-11T01:07:59.824Z,18.58
2018-08-11T01:08:59.991Z,18.52
2018-08-11T01:10:00.163Z,18.62
2018-08-11T01:11:00.357Z,18.52
2018-08-11T01:12:00.513Z,18.57
2018-08-11T01:13:00.676Z,18.51
2018-08-11T01:14:00.855Z,18.44
2018-08-11T01:15:01.012Z,18.37
2018-08-11T01:16:01.178Z,18.36
2018-08-11T01:17:01.350Z,18.33
2018-08-11T01:18:01.525Z,18.32
2018-08-11T01:19:01.692Z,18.37
2018-08-11T01:20:01.874Z,18.25
2018-08-11T01:21:02.038Z,18.29
2018-08-11T01:22:02.208Z,18.36
2018-08-11T01:23:02.383Z,18.32
2018-08-11T01:24:02.549Z,18.35
2018-08-11T01:25:02.726Z,18.35
2018-08-11T01:26:02.896Z,18.37
2018-08-11T01:27:03.074Z,18.21
2018-08-11T01:28:03.248Z,18.29
2018-08-11T01:29:03.423Z,18.21
2018-08-11T01:30:03.590Z,18.14
2018-08-11T01:31:03.754Z,18.10
2018-08-11T01:32:03.928Z,18.11
2018-08-11T01:33:04.100Z,18.21
2018-08-11T01:34:04.271Z,18.14
2018-08-11T01:35:04.445Z,18.08
2018-08-11T01:36:04.618Z,18.03
2018-08-11T01:37:04.790Z,18.05
2018-08-11T01:38:04.962Z,17.93
2018-08-11T01:39:05.136Z,17.95
2018-08-11T01:40:05.300Z,17.90
2018-08-11T01:41:05.472Z,17.87
2018-08-11T01:42:05.639Z,17.87
2018-08-11T01:43:05.823Z,17.93
2018-08-11T01:44:06.031Z,17.87
2018-08-11T01:45:06.168Z,17.89
2018-08-11T01:46:06.337Z,17.92
2018-08-11T01:47:06.507Z,17.96
2018-08-11T01:48:06.682Z,17.97
2018-08-11T01:49:06.848Z,17.63
2018-08-11T01:50:07.018Z,17.63
2018-08-11T01:51:07.182Z,17.55
2018-08-11T01:52:07.353Z,17.54
2018-08-11T01:53:07.522Z,17.55
2018-08-11T01:54:07.688Z,17.49
2018-08-11T01:55:07.868Z,17.52
2018-08-11T01:56:08.035Z,17.41
2018-08-11T01:57:08.214Z,17.37
2018-08-11T01:58:08.383Z,17.37
2018-08-11T01:59:08.547Z,17.16
2018-08-11T02:00:08.715Z,17.21
2018-08-11T02:01:08.891Z,17.06
2018-08-11T02:02:09.055Z,17.04
2018-08-11T02:03:09.222Z,17.01
2018-08-11T02:04:09.405Z,17.07
2018-08-11T02:05:09.575Z,17.04
2018-08-11T02:06:09.747Z,17.07
2018-08-11T02:07:09.912Z,17.15
2018-08-11T02:08:10.078Z,17.18
2018-08-11T02:09:10.246Z,17.19
2018-08-11T02:10:10.423Z,17.34
2018-08-11T02:11:10.612Z,17.43
2018-08-11T02:12:10.765Z,17.46
2018-08-11T02:13:10.921Z,17.26
2018-08-11T02:14:11.090Z,17.12
2018-08-11T02:15:11.261Z,17.07
2018-08-11T02:16:11.430Z,17.07
2018-08-11T02:17:11.598Z,17.03
2018-08-11T02:18:11.776Z,16.98
2018-08-11T02:19:11.945Z,17.01
2018-08-11T02:20:12.116Z,17.03
2018-08-11T02:21:12.285Z,16.97
2018-08-11T02:22:12.462Z,17.04
2018-08-11T02:23:12.626Z,17.15
2018-08-11T02:24:12.796Z,17.04
2018-08-11T02:25:12.965Z,17.08
2018-08-11T02:26:13.130Z,17.15
2018-08-11T02:27:13.303Z,17.11
2018-08-11T02:28:13.471Z,17.11
2018-08-11T02:29:49.568Z,17.12
2018-08-11T02:30:13.826Z,17.08
2018-08-11T02:31:13.990Z,17.14
2018-08-11T02:32:14.175Z,17.25
2018-08-11T02:33:14.340Z,17.30
2018-08-11T02:34:14.552Z,17.34
2018-08-11T02:35:14.680Z,17.26
2018-08-11T02:36:14.853Z,17.26
2018-08-11T02:37:15.017Z,17.28
2018-08-11T02:38:15.188Z,17.25
2018-08-11T02:39:15.363Z,17.08
2018-08-11T02:40:15.552Z,17.16
2018-08-11T02:41:15.704Z,17.21
2018-08-11T02:42:15.875Z,17.07
2018-08-11T02:43:16.046Z,17.28
2018-08-11T02:44:16.210Z,17.34
2018-08-11T02:45:52.069Z,17.34
2018-08-11T02:46:16.576Z,17.48
2018-08-11T02:47:16.741Z,17.43
2018-08-11T02:48:16.912Z,17.58
2018-08-11T02:49:17.087Z,17.56
2018-08-11T02:50:17.249Z,17.66
2018-08-11T02:51:17.426Z,17.70
2018-08-11T02:52:17.597Z,17.74
2018-08-11T02:53:17.770Z,17.81
2018-08-11T02:54:17.939Z,17.84
2018-08-11T02:55:18.129Z,17.90
2018-08-11T02:56:18.280Z,17.92
2018-08-11T02:57:18.437Z,17.97
2018-08-11T02:58:18.626Z,18.10
2018-08-11T02:59:18.780Z,18.17
2018-08-11T03:00:18.957Z,18.20
2018-08-11T03:01:19.125Z,18.17
2018-08-11T03:02:19.330Z,18.17
2018-08-11T03:03:19.467Z,18.29
2018-08-11T03:04:19.640Z,18.18
2018-08-11T03:05:19.807Z,18.30
2018-08-11T03:06:19.978Z,18.26
2018-08-11T03:07:20.147Z,18.32
2018-08-11T03:08:20.318Z,18.26
2018-08-11T03:09:20.490Z,18.29
2018-08-11T03:10:20.654Z,18.27
2018-08-11T03:11:20.818Z,18.32
2018-08-11T03:12:20.991Z,18.30
2018-08-11T03:13:21.160Z,18.25
2018-08-11T03:14:21.325Z,18.25
2018-08-11T03:15:21.494Z,18.29
2018-08-11T03:16:21.672Z,18.30
2018-08-11T03:17:21.857Z,18.11
2018-08-11T03:18:22.012Z,18.05
2018-08-11T03:19:22.177Z,17.97
2018-08-11T03:20:22.351Z,17.96
2018-08-11T03:21:22.520Z,17.84
2018-08-11T03:22:22.689Z,17.81
2018-08-11T03:23:22.856Z,17.87
2018-08-11T03:24:23.027Z,17.90
2018-08-11T03:25:23.195Z,17.75
2018-08-11T03:26:23.367Z,17.66
2018-08-11T03:27:23.541Z,17.63
2018-08-11T03:28:23.712Z,17.58
2018-08-11T03:29:23.877Z,17.58
2018-08-11T03:30:24.053Z,17.58
2018-08-11T03:31:24.221Z,17.52
2018-08-11T03:32:24.386Z,17.58
2018-08-11T03:33:24.556Z,17.41
2018-08-11T03:34:24.736Z,17.33
2018-08-11T03:35:24.907Z,17.30
2018-08-11T03:36:25.076Z,17.25
2018-08-11T03:37:25.247Z,17.25
2018-08-11T03:38:25.414Z,17.19
2018-08-11T03:39:25.586Z,17.28
2018-08-11T03:40:25.760Z,17.36
2018-08-11T03:41:25.932Z,17.26
2018-08-11T03:42:26.102Z,17.22
2018-08-11T03:43:26.273Z,17.21
2018-08-11T03:44:26.439Z,17.14
2018-08-11T03:45:26.605Z,17.11
2018-08-11T03:46:26.782Z,17.06
2018-08-11T03:47:26.948Z,17.16
2018-08-11T03:48:27.118Z,17.23
2018-08-11T03:49:27.292Z,17.33
2018-08-11T03:50:27.460Z,17.25
2018-08-11T03:51:27.630Z,17.23
2018-08-11T03:52:27.817Z,17.31
2018-08-11T03:53:27.968Z,17.33
2018-08-11T03:54:28.140Z,17.25
2018-08-11T03:55:28.342Z,17.46
2018-08-11T03:56:28.474Z,17.26
2018-08-11T03:57:28.646Z,17.14
2018-08-11T03:58:28.814Z,17.03
2018-08-11T03:59:28.977Z,16.94
2018-08-11T04:00:29.145Z,16.89
2018-08-11T04:01:29.322Z,17.00
2018-08-11T04:02:29.498Z,17.01
2018-08-11T04:03:29.677Z,17.21
2018-08-11T04:04:29.847Z,17.23
2018-08-11T04:05:30.021Z,17.40
2018-08-11T04:06:30.248Z,17.44
2018-08-11T04:07:30.363Z,17.62
2018-08-11T04:08:30.538Z,17.62
2018-08-11T04:09:30.706Z,17.68
2018-08-11T04:10:30.874Z,17.68
2018-08-11T04:11:31.048Z,17.66
2018-08-11T04:12:31.220Z,17.68
2018-08-11T04:13:31.389Z,17.68
2018-08-11T04:14:31.557Z,17.72
2018-08-11T04:15:31.727Z,17.58
2018-08-11T04:16:31.899Z,17.63
2018-08-11T04:17:32.081Z,17.72
2018-08-11T04:18:32.279Z,17.75
2018-08-11T04:19:32.449Z,17.75
2018-08-11T04:20:32.620Z,17.66
2018-08-11T04:21:32.787Z,17.78
2018-08-11T04:22:32.962Z,17.78
2018-08-11T04:23:33.131Z,17.79
2018-08-11T04:24:33.312Z,17.92
2018-08-11T04:25:33.490Z,17.92
2018-08-11T04:26:33.662Z,17.82
2018-08-11T04:27:33.838Z,17.79
2018-08-11T04:28:34.014Z,17.75
2018-08-11T04:29:34.182Z,17.74
2018-08-11T04:30:34.351Z,17.64
2018-08-11T04:31:34.520Z,17.63
2018-08-11T04:32:34.691Z,17.62
2018-08-11T04:33:34.858Z,17.55
2018-08-11T04:34:35.054Z,17.63
2018-08-11T04:35:35.221Z,17.68
2018-08-11T04:36:35.363Z,17.63
2018-08-11T04:37:35.544Z,17.71
2018-08-11T04:38:35.722Z,17.72
2018-08-11T04:39:35.896Z,17.71
2018-08-11T04:40:36.072Z,17.79
2018-08-11T04:41:36.242Z,17.90
2018-08-11T04:42:36.412Z,17.84
2018-08-11T04:43:36.590Z,17.79
2018-08-11T04:44:36.756Z,17.90
2018-08-11T04:45:36.931Z,17.92
2018-08-11T04:46:37.107Z,17.96
2018-08-11T04:47:37.273Z,18.02
2018-08-11T04:48:37.448Z,17.95
2018-08-11T04:49:37.618Z,17.92
2018-08-11T04:50:37.788Z,17.97
2018-08-11T04:51:37.964Z,18.08
2018-08-11T04:52:38.129Z,18.12
2018-08-11T04:53:38.305Z,18.12
2018-08-11T04:54:38.469Z,18.23
2018-08-11T04:55:40.985Z,18.25
2018-08-11T04:56:38.828Z,18.26
2018-08-11T04:57:38.998Z,18.23
2018-08-11T04:58:39.171Z,18.26
2018-08-11T04:59:39.412Z,18.26
2018-08-11T05:00:53.053Z,18.21
2018-08-11T05:01:39.635Z,18.17
2018-08-11T05:02:39.809Z,18.18
2018-08-11T05:03:39.977Z,18.08
2018-08-11T05:04:40.153Z,18.00
2018-08-11T05:05:40.325Z,18.00
2018-08-11T05:06:40.491Z,18.02
2018-08-11T05:07:40.668Z,17.99
2018-08-11T05:08:40.832Z,17.96
2018-08-11T05:09:41.005Z,17.93
2018-08-11T05:10:41.176Z,18.10
2018-08-11T05:11:41.345Z,17.93
2018-08-11T05:12:41.523Z,18.00
2018-08-11T05:13:41.697Z,17.96
2018-08-11T05:14:41.869Z,18.08
2018-08-11T05:15:42.041Z,17.96
2018-08-11T05:16:42.213Z,18.07
2018-08-11T05:17:42.382Z,18.07
2018-08-11T05:18:42.550Z,18.10
2018-08-11T05:19:42.719Z,18.15
2018-08-11T05:20:42.894Z,18.17
2018-08-11T05:21:43.057Z,18.26
2018-08-11T05:22:43.213Z,18.15
2018-08-11T05:23:43.397Z,18.23
2018-08-11T05:24:43.565Z,18.21
2018-08-11T05:25:43.736Z,18.25
2018-08-11T05:26:44.012Z,18.26
2018-08-11T05:27:44.030Z,18.17
2018-08-11T05:28:44.188Z,18.17
2018-08-11T05:29:44.362Z,18.18
2018-08-11T05:30:44.726Z,18.20
2018-08-11T05:31:44.748Z,18.37
2018-08-11T05:32:44.913Z,18.44
2018-08-11T05:33:45.084Z,18.65
2018-08-11T05:34:45.263Z,18.63
2018-08-11T05:35:45.428Z,18.73
2018-08-11T05:36:45.610Z,18.69
2018-08-11T05:37:45.796Z,18.63
2018-08-11T05:38:45.972Z,18.60
2018-08-11T05:39:46.139Z,18.62
2018-08-11T05:40:46.315Z,18.60
2018-08-11T05:41:46.541Z,18.69
2018-08-11T05:42:46.646Z,18.62
2018-08-11T05:43:46.962Z,18.63
2018-08-11T05:44:46.985Z,18.69
2018-08-11T05:45:47.165Z,18.69
2018-08-11T05:46:47.328Z,18.69
2018-08-11T05:47:47.501Z,18.80
2018-08-11T05:48:47.674Z,18.76
2018-08-11T05:49:47.840Z,18.78
2018-08-11T05:50:48.093Z,18.73
2018-08-11T05:51:48.188Z,18.69
2018-08-11T05:52:48.357Z,18.69
2018-08-11T05:53:48.530Z,18.72
2018-08-11T05:54:48.699Z,18.81
2018-08-11T05:55:48.879Z,18.85
2018-08-11T05:56:49.041Z,18.87
2018-08-11T05:57:49.214Z,18.94
2018-08-11T05:58:49.388Z,18.76
2018-08-11T05:59:49.576Z,18.94
2018-08-11T06:00:49.735Z,19.11
2018-08-11T06:01:49.906Z,19.18
2018-08-11T06:02:50.087Z,19.32
2018-08-11T06:03:50.283Z,19.31
2018-08-11T06:04:50.431Z,19.39
2018-08-11T06:05:50.601Z,19.63
2018-08-11T06:06:50.774Z,19.74
2018-08-11T06:07:50.985Z,19.88
2018-08-11T06:08:51.120Z,20.06
2018-08-11T06:09:51.287Z,20.06
2018-08-11T06:10:51.461Z,20.17
2018-08-11T06:11:51.635Z,20.24
2018-08-11T06:12:51.799Z,20.23
2018-08-11T06:13:51.968Z,20.11
2018-08-11T06:14:52.148Z,20.18
2018-08-11T06:15:52.319Z,20.20
2018-08-11T06:16:52.492Z,20.16
2018-08-11T06:17:52.657Z,20.21
2018-08-11T06:18:52.826Z,20.20
2018-08-11T06:19:53.002Z,20.32
2018-08-11T06:20:53.174Z,20.38
2018-08-11T06:21:53.351Z,20.39
2018-08-11T06:22:53.536Z,20.38
2018-08-11T06:23:53.695Z,20.48
2018-08-11T06:24:53.875Z,20.61
2018-08-11T06:25:54.046Z,20.74
2018-08-11T06:26:54.222Z,20.88
2018-08-11T06:27:54.392Z,20.94
2018-08-11T06:28:54.589Z,20.82
2018-08-11T06:29:54.760Z,20.74
2018-08-11T06:30:54.934Z,20.72
2018-08-11T06:31:55.199Z,20.84
2018-08-11T06:32:55.281Z,20.80
2018-08-11T06:33:55.459Z,20.91
2018-08-11T06:34:55.645Z,20.85
2018-08-11T06:35:55.815Z,20.85
2018-08-11T06:36:55.993Z,21.06
2018-08-11T06:37:56.170Z,21.07
2018-08-11T06:38:56.348Z,21.22
2018-08-11T06:39:56.525Z,21.44
2018-08-11T06:40:56.804Z,21.46
2018-08-11T06:41:56.888Z,21.59
2018-08-11T06:42:57.042Z,21.86
2018-08-11T06:43:57.209Z,22.14
2018-08-11T06:44:57.380Z,22.22
2018-08-11T06:45:57.541Z,22.28
2018-08-11T06:46:57.740Z,22.33
2018-08-11T06:47:57.898Z,22.40
2018-08-11T06:48:58.061Z,22.15
2018-08-11T06:49:58.230Z,22.20
2018-08-11T06:50:58.397Z,22.14
2018-08-11T06:51:58.566Z,22.24
2018-08-11T06:52:58.745Z,22.21
2018-08-11T06:53:59.533Z,22.09
2018-08-11T06:54:59.057Z,22.02
2018-08-11T06:55:59.229Z,21.98
2018-08-11T06:56:59.398Z,21.99
2018-08-11T06:57:59.731Z,21.84
2018-08-11T06:58:59.927Z,21.75
2018-08-11T06:59:59.966Z,21.59
2018-08-11T07:01:00.134Z,21.65
2018-08-11T07:02:00.306Z,21.74
2018-08-11T07:03:00.528Z,21.82
2018-08-11T07:04:00.730Z,21.98
2018-08-11T07:05:00.840Z,21.88
2018-08-11T07:06:01.008Z,21.75
2018-08-11T07:07:01.258Z,21.65
2018-08-11T07:08:01.341Z,21.64
2018-08-11T07:09:01.509Z,21.47
2018-08-11T07:10:01.671Z,21.34
2018-08-11T07:11:01.902Z,21.35
2018-08-11T07:12:02.198Z,21.32
2018-08-11T07:13:02.202Z,21.19
2018-08-11T07:14:02.362Z,21.24
2018-08-11T07:15:02.540Z,21.14
2018-08-11T07:16:02.710Z,21.25
2018-08-11T07:17:02.916Z,21.42
2018-08-11T07:18:03.079Z,21.40
2018-08-11T07:19:03.249Z,21.56
2018-08-11T07:20:03.464Z,21.71
2018-08-11T07:21:03.608Z,21.82
2018-08-11T07:22:03.789Z,21.86
2018-08-11T07:23:03.985Z,22.00
2018-08-11T07:24:04.142Z,22.06
2018-08-11T07:25:04.327Z,22.17
2018-08-11T07:26:04.502Z,21.92
2018-08-11T07:27:04.666Z,22.07
2018-08-11T07:28:04.836Z,22.10
2018-08-11T07:29:05.005Z,22.15
2018-08-11T07:30:05.193Z,22.42
2018-08-11T07:31:05.373Z,22.54
2018-08-11T07:32:05.558Z,22.55
2018-08-11T07:33:05.731Z,22.54
2018-08-11T07:34:05.919Z,22.73
2018-08-11T07:35:06.086Z,22.65
2018-08-11T07:36:06.331Z,22.90
2018-08-11T07:37:06.439Z,23.22
2018-08-11T07:38:06.601Z,23.01
2018-08-11T07:39:06.792Z,23.28
2018-08-11T07:40:06.956Z,22.85
2018-08-11T07:41:07.143Z,22.98
2018-08-11T07:42:07.312Z,23.05
2018-08-11T07:43:07.483Z,23.10
2018-08-11T07:44:07.654Z,23.15
2018-08-11T07:45:07.827Z,23.43
2018-08-11T07:46:08.016Z,23.40
2018-08-11T07:47:08.186Z,23.75
2018-08-11T07:48:08.358Z,23.57
2018-08-11T07:49:08.544Z,23.55
2018-08-11T07:50:08.736Z,23.57
2018-08-11T07:51:08.886Z,23.43
2018-08-11T07:52:09.064Z,23.22
2018-08-11T07:53:09.239Z,23.10
2018-08-11T07:54:09.430Z,23.00
2018-08-11T07:55:09.597Z,23.07
2018-08-11T07:56:09.784Z,23.20
2018-08-11T07:57:09.951Z,23.33
2018-08-11T07:58:10.130Z,23.60
2018-08-11T07:59:10.292Z,23.73
2018-08-11T08:00:10.472Z,23.69
2018-08-11T08:01:10.651Z,23.60
2018-08-11T08:02:10.816Z,23.60
2018-08-11T08:03:10.989Z,23.51
2018-08-11T08:04:11.164Z,23.53
2018-08-11T08:05:11.340Z,23.65
2018-08-11T08:06:11.524Z,23.50
2018-08-11T08:07:11.697Z,23.53
2018-08-11T08:08:11.870Z,23.48
2018-08-11T08:09:12.045Z,23.65
2018-08-11T08:10:12.226Z,23.69
2018-08-11T08:11:12.394Z,23.68
2018-08-11T08:12:12.578Z,23.72
2018-08-11T08:13:12.757Z,23.83
2018-08-11T08:14:12.923Z,23.83
2018-08-11T08:15:13.118Z,23.87
2018-08-11T08:16:13.292Z,23.90
2018-08-11T08:17:13.462Z,23.95
2018-08-11T08:18:13.639Z,24.12
2018-08-11T08:19:13.816Z,24.25
2018-08-11T08:20:14.020Z,23.94
2018-08-11T08:21:14.188Z,23.78
2018-08-11T08:22:14.348Z,23.72
2018-08-11T08:23:14.519Z,23.90
2018-08-11T08:24:14.704Z,24.08
2018-08-11T08:25:14.875Z,24.58
2018-08-11T08:26:15.153Z,24.31
2018-08-11T08:27:15.192Z,24.64
2018-08-11T08:28:15.352Z,24.61
2018-08-11T08:29:15.530Z,24.71
2018-08-11T08:30:15.705Z,25.10
2018-08-11T08:31:15.929Z,24.98
2018-08-11T08:32:16.118Z,24.71
2018-08-11T08:33:16.298Z,24.67
2018-08-11T08:34:16.488Z,24.22
2018-08-11T08:35:16.661Z,24.37
2018-08-11T08:36:16.836Z,24.45
2018-08-11T08:37:17.009Z,24.35
2018-08-11T08:38:17.184Z,24.32
2018-08-11T08:39:17.365Z,24.62
2018-08-11T08:40:17.541Z,24.62
2018-08-11T08:41:17.719Z,24.62
2018-08-11T08:42:17.896Z,24.68
2018-08-11T08:43:18.070Z,24.78
2018-08-11T08:44:18.255Z,24.81
2018-08-11T08:45:18.430Z,24.93
2018-08-11T08:46:18.597Z,25.14
2018-08-11T08:47:18.784Z,25.13
2018-08-11T08:48:18.989Z,25.25
2018-08-11T08:49:19.175Z,25.43
2018-08-11T08:50:19.346Z,25.46
2018-08-11T08:51:19.531Z,25.20
2018-08-11T08:52:19.713Z,25.40
2018-08-11T08:53:19.899Z,25.18
2018-08-11T08:54:20.065Z,24.93
2018-08-11T08:55:20.239Z,25.40
2018-08-11T08:56:20.417Z,25.76
2018-08-11T08:57:20.594Z,25.50
2018-08-11T08:58:20.767Z,25.52
2018-08-11T08:59:20.951Z,26.21
2018-08-11T09:00:21.122Z,27.06
2018-08-11T09:01:21.301Z,27.74
2018-08-11T09:02:21.472Z,27.49
2018-08-11T09:03:21.650Z,26.75
2018-08-11T09:04:21.835Z,26.26
2018-08-11T09:05:22.015Z,25.67
2018-08-11T09:06:22.196Z,27.41
2018-08-11T09:07:22.373Z,29.46
2018-08-11T09:08:22.615Z,30.55
2018-08-11T09:09:22.727Z,30.83
2018-08-11T09:10:22.902Z,31.70
2018-08-11T09:11:23.081Z,31.28
2018-08-11T09:12:23.254Z,29.23
2018-08-11T09:13:23.427Z,29.28
2018-08-11T09:14:23.603Z,28.76
2018-08-11T09:15:23.791Z,27.60
2018-08-11T09:16:23.972Z,26.84
2018-08-11T09:17:24.150Z,26.45
2018-08-11T09:18:24.370Z,26.60
2018-08-11T09:19:24.575Z,26.63
2018-08-11T09:20:24.760Z,26.25
2018-08-11T09:21:24.941Z,26.21
2018-08-11T09:22:25.118Z,25.90
2018-08-11T09:23:25.295Z,25.69
2018-08-11T09:24:25.498Z,25.65
2018-08-11T09:25:25.667Z,25.42
2018-08-11T09:26:25.929Z,25.40
2018-08-11T09:27:26.058Z,25.38
2018-08-11T09:28:26.236Z,25.32
2018-08-11T09:29:26.412Z,27.31
2018-08-11T09:30:26.598Z,28.52
2018-08-11T09:31:26.774Z,27.79
2018-08-11T09:32:26.949Z,27.12
2018-08-11T09:33:27.134Z,26.99
2018-08-11T09:34:27.360Z,26.95
2018-08-11T09:35:27.531Z,27.74
2018-08-11T09:36:27.760Z,27.77
2018-08-11T09:37:27.935Z,27.43
2018-08-11T09:38:28.166Z,28.00
2018-08-11T09:39:28.304Z,30.27
2018-08-11T09:40:28.491Z,31.44
2018-08-11T09:41:28.665Z,31.96
2018-08-11T09:42:28.836Z,32.51
2018-08-11T09:43:29.072Z,33.38
2018-08-11T09:44:29.252Z,33.61
2018-08-11T09:45:29.438Z,34.70
2018-08-11T09:46:29.613Z,33.14
2018-08-11T09:47:29.798Z,32.15
2018-08-11T09:48:29.965Z,30.84
2018-08-11T09:49:30.162Z,30.19
2018-08-11T09:50:30.339Z,29.76
2018-08-11T09:51:30.536Z,31.69
2018-08-11T09:52:30.715Z,32.01
2018-08-11T09:53:30.893Z,31.53
2018-08-11T09:54:31.072Z,31.10
2018-08-11T09:55:31.341Z,31.96
2018-08-11T09:56:31.365Z,32.44
2018-08-11T09:57:31.539Z,33.04
2018-08-11T09:58:31.729Z,33.69
2018-08-11T09:59:31.919Z,32.37
2018-08-11T10:00:32.132Z,31.12
2018-08-11T10:01:32.275Z,30.54
2018-08-11T10:02:32.529Z,30.07
2018-08-11T10:03:32.582Z,29.67
2018-08-11T10:04:32.778Z,29.64
2018-08-11T10:05:32.949Z,29.28
2018-08-11T10:06:33.124Z,28.67
2018-08-11T10:07:36.213Z,29.26
2018-08-11T10:08:33.575Z,30.86
2018-08-11T10:09:33.718Z,32.13
2018-08-11T10:10:33.912Z,33.06
2018-08-11T10:11:34.091Z,33.45
2018-08-11T10:12:34.268Z,32.13
2018-08-11T10:13:34.487Z,32.14
2018-08-11T10:14:34.770Z,31.32
2018-08-11T10:15:34.905Z,31.02
2018-08-11T10:16:35.091Z,30.58
2018-08-11T10:17:35.304Z,30.22
2018-08-11T10:18:35.518Z,30.00
2018-08-11T10:19:35.674Z,30.16
2018-08-11T10:20:35.863Z,32.37
2018-08-11T10:21:36.247Z,31.07
2018-08-11T10:22:36.179Z,30.32
2018-08-11T10:23:36.359Z,29.09
2018-08-11T10:24:36.552Z,28.40
2018-08-11T10:25:36.733Z,28.18
2018-08-11T10:26:36.915Z,28.15
2018-08-11T10:27:37.091Z,27.70
2018-08-11T10:28:37.280Z,27.72
2018-08-11T10:29:37.452Z,27.59
2018-08-11T10:30:37.630Z,27.75
2018-08-11T10:31:37.810Z,27.57
2018-08-11T10:32:38.013Z,27.37
2018-08-11T10:33:38.309Z,27.24
2018-08-11T10:34:38.429Z,27.03
2018-08-11T10:35:38.609Z,26.85
2018-08-11T10:36:38.791Z,26.91
2018-08-11T10:37:38.971Z,27.67
2018-08-11T10:38:39.144Z,27.55
2018-08-11T10:39:39.371Z,29.39
2018-08-11T10:40:39.507Z,31.06
2018-08-11T10:41:39.682Z,32.26
2018-08-11T10:42:39.903Z,33.01
2018-08-11T10:43:40.060Z,33.50
2018-08-11T10:44:41.086Z,34.64
2018-08-11T10:45:40.465Z,35.16
2018-08-11T10:46:40.717Z,35.48
2018-08-11T10:47:40.811Z,36.08
2018-08-11T10:48:55.674Z,36.68
2018-08-11T10:49:41.198Z,38.06
2018-08-11T10:50:41.382Z,38.60
2018-08-11T10:51:41.568Z,38.28
2018-08-11T10:52:41.752Z,38.20
2018-08-11T10:53:41.930Z,37.06
2018-08-11T10:54:42.114Z,37.05
2018-08-11T10:55:42.313Z,36.64
2018-08-11T10:56:42.503Z,37.06
2018-08-11T10:57:42.687Z,37.94
2018-08-11T10:58:42.880Z,38.76
2018-08-11T10:59:43.067Z,38.83
2018-08-11T11:00:43.251Z,39.84
2018-08-11T11:01:43.444Z,39.67
2018-08-11T11:02:43.627Z,40.34
2018-08-11T11:03:43.817Z,40.01
2018-08-11T11:04:44.013Z,39.52
2018-08-11T11:05:44.210Z,40.45
2018-08-11T11:06:44.391Z,40.42
2018-08-11T11:07:44.585Z,40.82
2018-08-11T11:08:44.773Z,40.58
2018-08-11T11:09:44.965Z,41.13
2018-08-11T11:10:45.160Z,41.39
2018-08-11T11:11:45.345Z,41.35
2018-08-11T11:12:45.537Z,41.90
2018-08-11T11:13:45.732Z,41.55
2018-08-11T11:17:18.291Z,40.88
2018-08-11T11:18:18.470Z,39.89
2018-08-11T11:19:18.678Z,40.41
2018-08-11T11:20:18.861Z,40.55
2018-08-11T11:21:19.051Z,41.26
2018-08-11T11:22:19.249Z,40.61
2018-08-11T11:23:19.437Z,40.38
2018-08-11T11:24:19.628Z,39.45
2018-08-11T11:25:19.829Z,39.50
2018-08-11T11:26:20.016Z,39.01
2018-08-11T11:27:20.218Z,39.26
2018-08-11T11:28:20.410Z,39.30
2018-08-11T11:29:20.632Z,39.51
2018-08-11T11:30:20.802Z,39.52
2018-08-11T11:31:20.992Z,39.94
2018-08-11T11:32:21.181Z,41.04
2018-08-11T11:33:21.422Z,41.06
2018-08-11T11:34:21.612Z,40.45
2018-08-11T11:35:21.813Z,40.74
2018-08-11T11:36:22.002Z,40.73
2018-08-11T11:37:22.226Z,41.35
2018-08-11T11:38:22.391Z,40.92
2018-08-11T11:39:22.583Z,40.62
2018-08-11T11:40:22.815Z,39.40
2018-08-11T11:41:22.969Z,39.48
2018-08-11T11:42:23.171Z,39.63
2018-08-11T11:43:23.370Z,38.37
2018-08-11T11:44:23.552Z,39.75
2018-08-11T11:45:23.740Z,40.34
2018-08-11T11:46:23.934Z,41.30
2018-08-11T11:47:24.127Z,41.25
2018-08-11T11:48:24.316Z,41.52
2018-08-11T11:49:24.510Z,41.11
2018-08-11T11:50:24.693Z,41.30
2018-08-11T11:51:24.897Z,41.11
2018-08-11T11:52:25.095Z,40.38
2018-08-11T11:53:25.272Z,40.41
2018-08-11T11:54:25.484Z,39.63
2018-08-11T11:55:25.652Z,39.28
2018-08-11T11:56:25.849Z,39.52
2018-08-11T11:57:26.037Z,39.55
2018-08-11T11:58:26.226Z,40.12
2018-08-11T11:59:26.421Z,39.98
2018-08-11T12:00:26.610Z,37.55
2018-08-11T12:01:26.796Z,36.72
2018-08-11T12:02:26.993Z,38.22
2018-08-11T12:03:27.192Z,38.93
2018-08-11T12:04:27.372Z,38.37
2018-08-11T12:05:27.565Z,38.78
2018-08-11T12:06:27.759Z,37.22
2018-08-11T12:07:27.945Z,37.10
2018-08-11T12:08:28.135Z,36.98
2018-08-11T12:09:28.321Z,37.79
2018-08-11T12:10:28.504Z,37.76
2018-08-11T12:11:28.689Z,37.93
2018-08-11T12:12:28.873Z,38.25
2018-08-11T12:13:29.223Z,38.56
2018-08-11T12:14:29.949Z,37.75
2018-08-11T12:15:29.506Z,37.34
2018-08-11T12:16:29.689Z,37.07
2018-08-11T12:17:29.865Z,36.65
2018-08-11T12:18:30.052Z,37.29
2018-08-11T12:19:30.270Z,38.68
2018-08-11T12:20:30.418Z,38.34
2018-08-11T12:21:30.610Z,36.84
2018-08-11T12:22:30.796Z,36.99
2018-08-11T12:23:30.974Z,36.90
2018-08-11T12:24:31.166Z,35.38
2018-08-11T12:25:31.352Z,35.85
2018-08-11T12:26:31.537Z,36.51
2018-08-11T12:27:31.720Z,35.11
2018-08-11T12:28:31.909Z,34.56
2018-08-11T12:29:32.092Z,35.21
2018-08-11T12:30:32.272Z,33.75
2018-08-11T12:31:32.650Z,33.00
2018-08-11T12:32:32.599Z,32.01
2018-08-11T12:33:32.779Z,31.91
2018-08-11T12:34:32.960Z,31.28
2018-08-11T12:35:33.142Z,30.84
2018-08-11T12:36:33.329Z,30.17
2018-08-11T12:37:33.558Z,29.97
2018-08-11T12:38:33.737Z,29.79
2018-08-11T12:39:33.906Z,29.74
2018-08-11T12:40:34.098Z,29.83
2018-08-11T12:41:34.272Z,29.67
2018-08-11T12:42:34.463Z,29.53
2018-08-11T12:43:34.630Z,29.63
2018-08-11T12:44:34.814Z,29.45
2018-08-11T12:45:35.061Z,29.37
2018-08-11T12:46:35.188Z,29.06
2018-08-11T12:47:35.365Z,29.23
2018-08-11T12:48:35.562Z,29.36
2018-08-11T12:49:35.725Z,29.39
2018-08-11T12:50:35.900Z,29.34
2018-08-11T12:51:36.089Z,29.39
2018-08-11T12:52:36.265Z,29.41
2018-08-11T12:53:36.444Z,29.14
2018-08-11T12:54:36.620Z,29.08
2018-08-11T12:55:36.799Z,28.89
2018-08-11T12:56:36.977Z,29.09
2018-08-11T12:57:37.159Z,29.12